createdAt,value
2022-10-26T00:00:52.930Z,6.55
2022-10-26T00:01:54.925Z,5.97
2022-10-26T00:02:56.936Z,6.26
2022-10-26T00:03:59.023Z,6.85
2022-10-26T00:05:01.155Z,6.95
2022-10-26T00:06:09.608Z,6.60
2022-10-26T00:07:11.525Z,6.31
2022-10-26T00:08:14.002Z,6.97
2022-10-26T00:09:15.872Z,6.38
2022-10-26T00:10:18.250Z,6.41
2022-10-26T00:11:20.747Z,6.75
2022-10-26T00:12:22.652Z,7.13
2022-10-26T00:13:25.157Z,7.09
2022-10-26T00:14:28.160Z,7.73
2022-10-26T00:15:31.140Z,8.53
2022-10-26T00:16:33.162Z,8.07
2022-10-26T00:17:35.107Z,9.06
2022-10-26T00:18:37.302Z,9.62
2022-10-26T00:19:39.392Z,9.60
2022-10-26T00:20:41.389Z,9.10
2022-10-26T00:21:43.360Z,10.01
2022-10-26T00:22:46.034Z,10.13
2022-10-26T00:23:48.001Z,10.58
2022-10-26T00:24:49.903Z,10.79
2022-10-26T00:25:57.015Z,10.57
2022-10-26T00:26:59.169Z,10.72
2022-10-26T00:28:01.055Z,10.81
2022-10-26T00:29:03.809Z,10.70
2022-10-26T00:30:07.215Z,9.61
2022-10-26T00:31:12.973Z,10.09
2022-10-26T00:32:14.935Z,9.51
2022-10-26T00:33:17.130Z,9.22
2022-10-26T00:34:19.112Z,9.72
2022-10-26T00:35:24.324Z,9.23
2022-10-26T00:36:26.366Z,9.50
2022-10-26T00:37:28.652Z,9.02
2022-10-26T00:38:30.890Z,8.37
2022-10-26T00:39:32.805Z,8.76
2022-10-26T00:40:35.303Z,8.96
2022-10-26T00:41:37.397Z,8.18
2022-10-26T00:42:39.532Z,8.31
2022-10-26T00:43:42.389Z,8.75
2022-10-26T00:44:50.807Z,8.74
2022-10-26T00:45:56.523Z,8.24
2022-10-26T00:46:58.860Z,7.94
2022-10-26T00:48:07.496Z,8.93
2022-10-26T00:49:13.664Z,10.00
2022-10-26T00:50:19.598Z,10.17
2022-10-26T00:51:34.477Z,9.18
2022-10-26T00:52:37.111Z,9.48
2022-10-26T00:53:39.480Z,9.15
2022-10-26T00:54:41.967Z,9.34
2022-10-26T00:55:50.225Z,8.90
2022-10-26T00:56:54.910Z,8.57
2022-10-26T00:57:57.877Z,10.09
2022-10-26T00:59:03.524Z,9.22
2022-10-26T01:00:07.465Z,9.60
2022-10-26T01:01:09.457Z,9.36
2022-10-26T01:02:12.505Z,10.45
2022-10-26T01:03:16.591Z,10.32
2022-10-26T01:04:19.526Z,9.51
2022-10-26T01:05:21.758Z,9.48
2022-10-26T01:06:24.432Z,10.07
2022-10-26T01:07:27.280Z,9.87
2022-10-26T01:08:30.032Z,10.39
2022-10-26T01:09:33.441Z,10.23
2022-10-26T01:10:38.248Z,10.24
2022-10-26T01:11:40.168Z,11.39
2022-10-26T01:12:42.560Z,11.55
2022-10-26T01:13:47.427Z,12.02
2022-10-26T01:14:50.023Z,10.77
2022-10-26T01:15:59.116Z,10.35
2022-10-26T01:17:26.710Z,11.31
2022-10-26T01:20:11.369Z,11.30
2022-10-26T01:21:36.888Z,10.69
2022-10-26T01:22:42.836Z,10.93
2022-10-26T01:24:08.254Z,10.43
2022-10-26T01:25:43.242Z,11.33
2022-10-26T01:26:55.083Z,10.43
2022-10-26T01:27:59.274Z,10.15
2022-10-26T01:29:20.419Z,11.51
2022-10-26T01:30:32.166Z,10.49
2022-10-26T01:33:18.781Z,9.88
2022-10-26T01:34:42.969Z,10.64
2022-10-26T01:36:15.984Z,10.36
2022-10-26T01:37:27.666Z,10.08
2022-10-26T01:38:36.424Z,9.94
2022-10-26T01:40:03.761Z,9.88
2022-10-26T01:42:33.752Z,9.42
2022-10-26T01:43:39.821Z,10.89
2022-10-26T01:44:48.475Z,10.44
2022-10-26T01:45:52.108Z,10.74
2022-10-26T01:46:57.069Z,10.50
2022-10-26T01:48:01.099Z,9.69
2022-10-26T01:49:09.457Z,10.56
2022-10-26T01:50:12.053Z,10.40
2022-10-26T01:51:15.372Z,8.70
2022-10-26T01:52:18.890Z,10.21
2022-10-26T01:53:21.115Z,9.79
2022-10-26T01:54:23.330Z,9.94
2022-10-26T01:55:40.900Z,9.89
2022-10-26T01:56:46.529Z,9.55
2022-10-26T01:57:51.556Z,9.80
2022-10-26T01:58:57.382Z,9.83
2022-10-26T02:00:09.806Z,8.77
2022-10-26T02:01:41.548Z,9.26
2022-10-26T02:03:02.558Z,9.38
2022-10-26T02:04:32.927Z,8.64
2022-10-26T02:05:57.054Z,8.91
2022-10-26T02:07:05.116Z,9.06
2022-10-26T02:08:10.846Z,9.18
2022-10-26T02:09:19.559Z,8.89
2022-10-26T02:10:25.331Z,9.14
2022-10-26T02:11:39.894Z,9.80
2022-10-26T02:13:17.872Z,10.25
2022-10-26T02:14:23.785Z,8.65
2022-10-26T02:15:35.151Z,8.85
2022-10-26T02:16:56.470Z,9.02
2022-10-26T02:18:02.440Z,8.86
2022-10-26T02:19:11.055Z,8.61
2022-10-26T02:20:17.256Z,8.76
2022-10-26T02:21:22.982Z,9.26
2022-10-26T02:22:34.939Z,8.74
2022-10-26T02:23:40.711Z,9.12
2022-10-26T02:24:44.338Z,9.03
2022-10-26T02:25:49.726Z,9.01
2022-10-26T02:26:55.992Z,8.47
2022-10-26T02:28:05.082Z,8.72
2022-10-26T02:29:10.809Z,8.52
2022-10-26T02:30:13.509Z,8.59
2022-10-26T02:31:18.211Z,8.86
2022-10-26T02:32:23.495Z,8.32
2022-10-26T02:33:27.891Z,7.96
2022-10-26T02:34:32.278Z,8.31
2022-10-26T02:35:37.851Z,9.25
2022-10-26T02:36:43.431Z,9.22
2022-10-26T02:37:48.982Z,8.08
2022-10-26T02:38:53.640Z,9.44
2022-10-26T02:39:59.293Z,8.62
2022-10-26T02:41:04.406Z,7.65
2022-10-26T02:42:08.855Z,8.74
2022-10-26T02:43:14.840Z,8.04
2022-10-26T02:44:26.441Z,8.63
2022-10-26T02:45:32.159Z,8.96
2022-10-26T02:46:34.478Z,8.86
2022-10-26T02:47:36.639Z,8.66
2022-10-26T02:48:38.929Z,8.10
2022-10-26T02:49:41.368Z,9.16
2022-10-26T02:51:02.335Z,7.97
2022-10-26T02:52:14.351Z,8.39
2022-10-26T02:53:21.516Z,9.36
2022-10-26T02:54:30.034Z,8.67
2022-10-26T02:55:38.628Z,8.93
2022-10-26T02:56:47.485Z,8.93
2022-10-26T02:57:53.458Z,8.56
2022-10-26T02:58:59.284Z,8.03
2022-10-26T03:00:03.732Z,8.13
2022-10-26T03:01:07.651Z,8.79
2022-10-26T03:02:12.758Z,8.43
2022-10-26T03:03:15.618Z,8.28
2022-10-26T03:04:17.692Z,8.63
2022-10-26T03:05:22.816Z,8.41
2022-10-26T03:06:26.117Z,8.83
2022-10-26T03:07:28.037Z,8.73
2022-10-26T03:08:30.346Z,8.43
2022-10-26T03:09:32.827Z,7.37
2022-10-26T03:10:40.905Z,8.70
2022-10-26T03:11:42.831Z,8.25
2022-10-26T03:12:45.751Z,8.02
2022-10-26T03:13:48.148Z,7.96
2022-10-26T03:14:50.029Z,6.79
2022-10-26T03:15:57.252Z,7.89
2022-10-26T03:16:59.898Z,8.14
2022-10-26T03:18:02.217Z,8.02
2022-10-26T03:19:04.120Z,7.98
2022-10-26T03:20:08.100Z,7.49
2022-10-26T03:21:10.238Z,7.20
2022-10-26T03:22:12.099Z,7.59
2022-10-26T03:23:13.997Z,8.05
2022-10-26T03:24:16.086Z,8.09
2022-10-26T03:25:18.350Z,7.65
2022-10-26T03:26:20.448Z,7.57
2022-10-26T03:27:22.539Z,8.38
2022-10-26T03:28:25.134Z,8.53
2022-10-26T03:29:27.020Z,7.77
2022-10-26T03:30:30.549Z,7.85
2022-10-26T03:31:32.464Z,7.35
2022-10-26T03:32:34.824Z,7.68
2022-10-26T03:34:40.105Z,8.03
2022-10-26T03:35:42.000Z,7.07
2022-10-26T03:36:44.275Z,7.29
2022-10-26T03:37:47.202Z,7.32
2022-10-26T03:38:49.568Z,7.66
2022-10-26T03:39:51.656Z,6.89
2022-10-26T03:40:53.741Z,8.02
2022-10-26T03:41:55.749Z,7.44
2022-10-26T03:42:57.903Z,7.65
2022-10-26T03:43:59.801Z,7.25
2022-10-26T03:45:02.067Z,7.65
2022-10-26T03:46:04.285Z,7.73
2022-10-26T03:47:06.179Z,7.77
2022-10-26T03:48:08.488Z,7.45
2022-10-26T03:49:10.397Z,7.79
2022-10-26T03:50:14.861Z,7.97
2022-10-26T03:51:16.779Z,7.79
2022-10-26T03:52:18.963Z,6.91
2022-10-26T03:53:20.847Z,7.59
2022-10-26T03:54:23.030Z,7.79
2022-10-26T03:55:24.929Z,8.18
2022-10-26T03:56:27.248Z,7.59
2022-10-26T03:57:29.148Z,7.55
2022-10-26T03:58:31.049Z,8.07
2022-10-26T03:59:32.990Z,7.22
2022-10-26T04:00:35.265Z,7.69
2022-10-26T04:01:37.559Z,7.51
2022-10-26T04:02:39.540Z,6.86
2022-10-26T04:03:41.436Z,7.11
2022-10-26T04:04:43.646Z,7.73
2022-10-26T04:05:45.655Z,7.11
2022-10-26T04:06:47.665Z,7.04
2022-10-26T04:08:01.258Z,7.80
2022-10-26T04:09:03.652Z,7.77
2022-10-26T04:10:08.704Z,8.14
2022-10-26T04:11:10.662Z,6.91
2022-10-26T04:12:12.770Z,6.99
2022-10-26T04:13:14.669Z,7.65
2022-10-26T04:14:16.564Z,7.33
2022-10-26T04:15:19.342Z,7.20
2022-10-26T04:16:21.652Z,7.36
2022-10-26T04:17:24.287Z,7.00
2022-10-26T04:18:26.215Z,7.45
2022-10-26T04:19:28.089Z,7.55
2022-10-26T04:20:31.308Z,7.93
2022-10-26T04:21:33.514Z,6.86
2022-10-26T04:22:36.087Z,7.58
2022-10-26T04:23:38.892Z,7.64
2022-10-26T04:24:41.178Z,7.84
2022-10-26T04:25:43.987Z,6.65
2022-10-26T04:26:45.979Z,7.10
2022-10-26T04:27:48.425Z,7.52
2022-10-26T04:28:50.763Z,7.08
2022-10-26T04:29:52.669Z,6.83
2022-10-26T04:30:55.342Z,7.96
2022-10-26T04:31:57.213Z,7.73
2022-10-26T04:32:59.693Z,7.05
2022-10-26T04:34:02.119Z,6.98
2022-10-26T04:35:05.708Z,7.37
2022-10-26T04:36:09.026Z,6.94
2022-10-26T04:37:11.356Z,7.17
2022-10-26T04:38:13.920Z,7.81
2022-10-26T04:39:16.101Z,6.98
2022-10-26T04:40:18.795Z,7.87
2022-10-26T04:41:20.699Z,6.98
2022-10-26T04:42:22.763Z,7.57
2022-10-26T04:43:24.686Z,7.25
2022-10-26T04:44:26.627Z,8.51
2022-10-26T04:45:29.125Z,8.10
2022-10-26T04:46:31.515Z,8.60
2022-10-26T04:47:33.905Z,8.19
2022-10-26T04:48:35.922Z,7.79
2022-10-26T04:49:37.820Z,8.27
2022-10-26T04:50:40.669Z,7.82
2022-10-26T04:51:42.563Z,8.27
2022-10-26T04:52:48.744Z,7.66
2022-10-26T04:53:53.727Z,8.41
2022-10-26T04:54:55.763Z,7.53
2022-10-26T04:55:59.534Z,7.27
2022-10-26T04:57:01.663Z,8.29
2022-10-26T04:58:04.863Z,8.39
2022-10-26T04:59:07.355Z,8.76
2022-10-26T05:00:11.631Z,7.86
2022-10-26T05:01:14.154Z,8.43
2022-10-26T05:02:16.438Z,7.99
2022-10-26T05:03:19.154Z,7.41
2022-10-26T05:04:21.078Z,7.98
2022-10-26T05:05:23.470Z,8.22
2022-10-26T05:06:25.650Z,7.50
2022-10-26T05:07:27.631Z,7.16
2022-10-26T05:08:29.710Z,7.41
2022-10-26T05:09:31.649Z,7.29
2022-10-26T05:10:34.522Z,7.91
2022-10-26T05:11:36.550Z,7.51
2022-10-26T05:12:38.451Z,8.41
2022-10-26T05:13:40.551Z,7.62
2022-10-26T05:14:43.189Z,7.35
2022-10-26T05:15:45.426Z,7.84
2022-10-26T05:16:49.500Z,7.93
2022-10-26T05:18:00.388Z,7.73
2022-10-26T05:19:02.468Z,8.26
2022-10-26T05:20:06.164Z,7.34
2022-10-26T05:21:10.859Z,7.32
2022-10-26T05:22:12.833Z,8.38
2022-10-26T05:23:14.923Z,7.89
2022-10-26T05:24:17.494Z,7.32
2022-10-26T05:25:19.594Z,7.61
2022-10-26T05:26:23.031Z,7.73
2022-10-26T05:27:25.207Z,8.11
2022-10-26T05:28:27.087Z,8.37
2022-10-26T05:29:29.000Z,7.71
2022-10-26T05:30:32.079Z,7.81
2022-10-26T05:31:34.152Z,7.86
2022-10-26T05:32:36.031Z,8.23
2022-10-26T05:33:37.905Z,7.69
2022-10-26T05:34:41.580Z,7.99
2022-10-26T05:35:43.900Z,8.27
2022-10-26T05:36:46.123Z,8.73
2022-10-26T05:37:48.470Z,7.73
2022-10-26T05:38:50.385Z,7.43
2022-10-26T05:39:54.348Z,7.14
2022-10-26T05:40:56.763Z,7.99
2022-10-26T05:41:58.648Z,7.00
2022-10-26T05:43:02.393Z,7.35
2022-10-26T05:44:04.634Z,6.93
2022-10-26T05:45:07.367Z,6.82
2022-10-26T05:46:11.429Z,7.17
2022-10-26T05:47:15.269Z,7.88
2022-10-26T05:48:17.369Z,6.55
2022-10-26T05:49:19.307Z,7.25
2022-10-26T05:50:21.490Z,7.63
2022-10-26T05:51:23.508Z,6.50
2022-10-26T05:52:25.376Z,6.79
2022-10-26T05:53:27.752Z,6.70
2022-10-26T05:54:29.822Z,6.87
2022-10-26T05:55:32.831Z,6.60
2022-10-26T05:56:37.494Z,6.26
2022-10-26T05:57:41.191Z,6.50
2022-10-26T05:58:44.339Z,6.09
2022-10-26T05:59:47.676Z,6.24
2022-10-26T06:01:13.581Z,7.16
2022-10-26T06:02:32.070Z,7.04
2022-10-26T06:03:41.282Z,5.62
2022-10-26T06:04:45.542Z,7.12
2022-10-26T06:05:56.557Z,6.71
2022-10-26T06:07:00.085Z,6.34
2022-10-26T06:08:02.743Z,6.28
2022-10-26T06:09:05.472Z,6.31
2022-10-26T06:10:10.230Z,6.25
2022-10-26T06:11:13.235Z,6.28
2022-10-26T06:12:19.245Z,6.03
2022-10-26T06:13:21.311Z,6.02
2022-10-26T06:14:24.254Z,6.18
2022-10-26T06:15:27.426Z,6.30
2022-10-26T06:16:51.729Z,5.54
2022-10-26T06:18:18.177Z,5.73
2022-10-26T06:19:41.841Z,5.63
2022-10-26T06:20:53.802Z,6.31
2022-10-26T06:22:02.860Z,5.61
2022-10-26T06:23:17.479Z,6.16
2022-10-26T06:24:48.140Z,6.65
2022-10-26T06:25:56.996Z,6.32
2022-10-26T06:27:24.370Z,6.61
2022-10-26T06:28:50.867Z,5.96
2022-10-26T06:30:10.624Z,6.98
2022-10-26T06:31:13.683Z,6.20
2022-10-26T06:32:17.012Z,7.01
2022-10-26T06:33:32.245Z,7.59
2022-10-26T06:34:27.559Z,6.66
2022-10-26T06:35:45.544Z,6.80
2022-10-26T06:36:49.996Z,6.93
2022-10-26T06:37:54.753Z,6.36
2022-10-26T06:39:06.157Z,6.21
2022-10-26T06:40:11.258Z,6.33
2022-10-26T06:41:15.089Z,5.68
2022-10-26T06:42:17.610Z,6.12
2022-10-26T06:43:29.514Z,5.95
2022-10-26T06:44:32.293Z,5.96
2022-10-26T06:45:36.235Z,6.30
2022-10-26T06:46:44.977Z,6.62
2022-10-26T06:47:56.613Z,6.11
2022-10-26T06:49:23.632Z,5.69
2022-10-26T06:52:10.643Z,5.52
2022-10-26T06:53:34.850Z,5.72
2022-10-26T06:54:52.355Z,5.36
2022-10-26T06:55:56.470Z,6.39
2022-10-26T06:56:59.910Z,5.81
2022-10-26T06:58:02.825Z,5.59
2022-10-26T06:59:20.418Z,5.86
2022-10-26T07:00:24.367Z,5.20
2022-10-26T07:01:26.417Z,5.52
2022-10-26T07:02:29.178Z,5.77
2022-10-26T07:03:31.402Z,7.06
2022-10-26T07:04:33.317Z,6.18
2022-10-26T07:05:35.497Z,6.53
2022-10-26T07:06:39.400Z,6.35
2022-10-26T07:07:46.927Z,6.29
2022-10-26T07:08:49.873Z,6.33
2022-10-26T07:09:52.262Z,5.99
2022-10-26T07:10:54.534Z,6.19
2022-10-26T07:11:56.439Z,5.33
2022-10-26T07:12:58.587Z,6.69
2022-10-26T07:14:00.472Z,7.25
2022-10-26T07:15:03.403Z,5.98
2022-10-26T07:16:06.408Z,6.26
2022-10-26T07:17:09.455Z,5.82
2022-10-26T07:18:11.394Z,6.23
2022-10-26T07:19:13.806Z,6.24
2022-10-26T07:20:18.730Z,6.33
2022-10-26T07:21:20.692Z,6.80
2022-10-26T07:22:23.429Z,5.97
2022-10-26T07:23:25.734Z,5.69
2022-10-26T07:24:28.634Z,5.55
2022-10-26T07:25:30.741Z,6.37
2022-10-26T07:26:33.114Z,6.00
2022-10-26T07:27:35.079Z,5.97
2022-10-26T07:28:37.071Z,5.52
2022-10-26T07:29:38.948Z,6.07
2022-10-26T07:30:44.836Z,5.34
2022-10-26T07:31:47.746Z,5.93
2022-10-26T07:32:50.450Z,5.51
2022-10-26T07:33:53.690Z,5.17
2022-10-26T07:34:55.903Z,5.68
2022-10-26T07:36:01.045Z,5.69
2022-10-26T07:37:02.978Z,5.16
2022-10-26T07:38:05.831Z,5.14
2022-10-26T07:39:08.025Z,4.66
2022-10-26T07:40:12.067Z,5.43
2022-10-26T07:41:15.544Z,5.70
2022-10-26T07:42:18.712Z,4.64
2022-10-26T07:43:20.702Z,4.95
2022-10-26T07:44:22.778Z,4.67
2022-10-26T07:45:27.161Z,4.65
2022-10-26T07:46:29.635Z,5.30
2022-10-26T07:47:31.702Z,5.41
2022-10-26T07:48:33.715Z,4.41
2022-10-26T07:49:35.648Z,5.34
2022-10-26T07:50:37.787Z,4.55
2022-10-26T07:51:39.724Z,4.89
2022-10-26T07:52:41.850Z,4.17
2022-10-26T07:53:45.376Z,4.61
2022-10-26T07:54:47.443Z,4.06
2022-10-26T07:55:54.936Z,3.90
2022-10-26T07:56:57.267Z,4.16
2022-10-26T07:57:59.761Z,4.35
2022-10-26T07:59:02.198Z,5.05
2022-10-26T08:00:07.441Z,4.39
2022-10-26T08:01:12.776Z,3.89
2022-10-26T08:02:15.243Z,4.01
2022-10-26T08:03:17.769Z,4.32
2022-10-26T08:04:20.466Z,4.30
2022-10-26T08:05:22.856Z,4.11
2022-10-26T08:06:25.522Z,4.64
2022-10-26T08:07:27.613Z,3.72
2022-10-26T08:08:30.638Z,4.11
2022-10-26T08:09:32.553Z,4.79
2022-10-26T08:10:34.761Z,4.89
2022-10-26T08:11:36.921Z,4.71
2022-10-26T08:12:39.309Z,4.42
2022-10-26T08:13:41.556Z,4.62
2022-10-26T08:14:45.006Z,4.15
2022-10-26T08:15:47.408Z,4.59
2022-10-26T08:16:49.509Z,4.50
2022-10-26T08:17:51.739Z,4.94
2022-10-26T08:18:54.253Z,5.48
2022-10-26T08:19:56.585Z,5.44
2022-10-26T08:21:10.900Z,5.60
2022-10-26T08:22:08.637Z,4.98
2022-10-26T08:23:10.630Z,5.11
2022-10-26T08:24:12.595Z,5.10
2022-10-26T08:25:17.537Z,5.12
2022-10-26T08:26:18.658Z,5.26
2022-10-26T08:27:20.648Z,5.33
2022-10-26T08:28:22.558Z,5.38
2022-10-26T08:29:24.838Z,5.85
2022-10-26T08:30:27.293Z,4.87
2022-10-26T08:31:29.455Z,5.63
2022-10-26T08:32:31.745Z,5.60
2022-10-26T08:33:33.879Z,5.50
2022-10-26T08:34:36.084Z,5.95
2022-10-26T08:35:38.290Z,5.64
2022-10-26T08:36:40.292Z,4.93
2022-10-26T08:37:42.206Z,4.67
2022-10-26T08:38:48.709Z,4.98
2022-10-26T08:39:54.657Z,4.99
2022-10-26T08:40:56.892Z,5.09
2022-10-26T08:43:39.570Z,4.94
2022-10-26T08:44:45.699Z,4.93
2022-10-26T08:45:54.159Z,6.59
2022-10-26T08:48:34.278Z,5.22
2022-10-26T08:49:42.963Z,4.92
2022-10-26T08:50:54.915Z,4.84
2022-10-26T08:52:01.927Z,5.13
2022-10-26T08:53:13.716Z,5.13
2022-10-26T08:54:37.529Z,4.42
2022-10-26T08:56:01.719Z,4.30
2022-10-26T08:58:30.361Z,4.19
2022-10-26T08:59:45.639Z,4.03
2022-10-26T09:00:50.338Z,4.00
2022-10-26T09:01:53.904Z,4.52
2022-10-26T09:02:56.512Z,4.37
2022-10-26T09:05:07.627Z,4.52
2022-10-26T09:06:21.046Z,3.56
2022-10-26T13:25:03.607Z,5.41
2022-10-26T13:26:12.101Z,5.33
2022-10-26T13:27:20.968Z,5.77
2022-10-26T13:28:38.984Z,5.06
2022-10-26T13:30:04.805Z,5.42
2022-10-26T13:31:30.369Z,5.99
2022-10-26T13:32:42.216Z,5.75
2022-10-26T13:33:46.209Z,7.15
2022-10-26T13:34:48.668Z,8.86
2022-10-26T13:35:53.768Z,8.31
2022-10-26T13:37:18.913Z,7.97
2022-10-26T13:38:23.664Z,9.07
2022-10-26T13:39:29.447Z,8.48
2022-10-26T13:40:31.823Z,9.28
2022-10-26T13:41:40.453Z,8.56
2022-10-26T13:42:46.236Z,7.18
2022-10-26T13:43:50.238Z,6.46
2022-10-26T13:45:11.171Z,6.65
2022-10-26T13:47:49.780Z,6.88
2022-10-26T13:48:55.818Z,7.30
2022-10-26T13:50:07.448Z,7.34
2022-10-26T13:51:21.873Z,7.62
2022-10-26T13:52:30.141Z,7.26
2022-10-26T13:53:37.667Z,6.28
2022-10-26T13:54:43.519Z,6.51
2022-10-26T13:56:05.690Z,5.43
2022-10-26T13:57:24.759Z,5.91
2022-10-26T13:58:42.980Z,5.79
2022-10-26T13:59:45.454Z,5.07
2022-10-26T14:01:15.962Z,5.22
2022-10-26T14:02:27.394Z,4.64
2022-10-26T14:03:31.192Z,5.01
2022-10-26T14:04:33.612Z,5.16
2022-10-26T14:05:39.265Z,5.37
2022-10-26T14:06:45.364Z,4.92
2022-10-26T14:07:56.654Z,4.79
2022-10-26T14:09:02.343Z,4.64
2022-10-26T14:10:05.964Z,4.69
2022-10-26T14:11:14.903Z,4.85
2022-10-26T14:12:17.053Z,5.15
2022-10-26T14:13:22.646Z,4.57
2022-10-26T14:14:34.694Z,5.87
2022-10-26T14:15:36.890Z,5.33
2022-10-26T14:16:40.133Z,4.07
2022-10-26T14:17:42.701Z,4.48
2022-10-26T14:18:45.430Z,5.08
2022-10-26T14:19:48.982Z,4.84
2022-10-26T14:21:06.230Z,4.51
2022-10-26T14:22:10.474Z,4.50
2022-10-26T14:23:27.881Z,4.14
2022-10-26T14:24:46.179Z,4.03
2022-10-26T14:25:42.316Z,3.74
2022-10-26T14:26:41.639Z,4.41
2022-10-26T14:27:43.656Z,3.89
2022-10-26T14:28:49.055Z,4.63
2022-10-26T14:30:20.535Z,4.27
2022-10-26T14:31:32.760Z,4.24
2022-10-26T14:32:34.830Z,4.08
2022-10-26T14:33:36.974Z,4.97
2022-10-26T14:34:39.129Z,4.23
2022-10-26T14:35:41.344Z,3.96
2022-10-26T14:36:53.441Z,4.19
2022-10-26T14:37:59.227Z,4.33
2022-10-26T14:39:04.979Z,4.17
2022-10-26T14:40:11.195Z,4.34
2022-10-26T14:41:16.524Z,4.73
2022-10-26T14:42:28.412Z,4.44
2022-10-26T14:43:31.018Z,4.77
2022-10-26T14:44:35.996Z,4.43
2022-10-26T14:45:54.707Z,4.40
2022-10-26T14:46:44.033Z,5.37
2022-10-26T14:47:48.470Z,4.66
2022-10-26T14:48:56.908Z,4.39
2022-10-26T14:51:12.256Z,5.03
2022-10-26T14:52:18.133Z,5.29
2022-10-26T14:53:21.703Z,6.15
2022-10-26T14:54:26.842Z,5.46
2022-10-26T14:55:30.694Z,4.98
2022-10-26T14:56:40.669Z,4.99
2022-10-26T14:57:45.744Z,5.07
2022-10-26T14:58:48.758Z,6.16
2022-10-26T15:00:03.233Z,5.26
2022-10-26T15:01:25.859Z,5.47
2022-10-26T15:02:29.362Z,5.16
2022-10-26T15:03:32.305Z,5.43
2022-10-26T15:04:40.458Z,5.86
2022-10-26T15:05:42.862Z,4.96
2022-10-26T15:06:45.900Z,4.88
2022-10-26T15:07:49.387Z,5.67
2022-10-26T15:08:57.512Z,4.42
2022-10-26T15:10:00.063Z,4.58
2022-10-26T15:11:07.506Z,4.25
2022-10-26T15:12:22.765Z,4.23
2022-10-26T15:13:33.090Z,4.43
2022-10-26T15:14:36.071Z,4.90
2022-10-26T15:15:39.813Z,4.65
2022-10-26T15:16:48.929Z,4.11
2022-10-26T15:17:57.486Z,4.41
2022-10-26T15:19:10.208Z,4.23
2022-10-26T15:20:19.057Z,4.69
2022-10-26T15:21:27.538Z,4.66
2022-10-26T15:22:32.303Z,4.67
2022-10-26T15:23:37.761Z,4.46
2022-10-26T15:24:40.030Z,5.63
2022-10-26T15:25:51.692Z,4.80
2022-10-26T15:26:55.335Z,4.47
2022-10-26T15:28:13.045Z,5.04
2022-10-26T15:31:02.241Z,4.90
2022-10-26T15:32:08.271Z,5.22
2022-10-26T15:33:19.765Z,5.87
2022-10-26T15:34:23.059Z,4.99
2022-10-26T15:35:29.168Z,5.24
2022-10-26T15:36:32.669Z,5.39
2022-10-26T15:37:34.659Z,5.50
2022-10-26T15:38:37.327Z,5.05
2022-10-26T15:39:39.290Z,5.43
2022-10-26T15:40:43.168Z,5.75
2022-10-26T15:41:46.851Z,5.39
2022-10-26T15:42:51.405Z,4.73
2022-10-26T15:43:55.640Z,4.48
2022-10-26T15:44:59.065Z,5.08
2022-10-26T15:46:01.151Z,4.73
2022-10-26T15:48:01.806Z,4.82
2022-10-26T15:49:06.518Z,4.59
2022-10-26T15:50:15.329Z,5.52
2022-10-26T15:51:17.310Z,5.17
2022-10-26T15:52:19.216Z,5.87
2022-10-26T15:53:24.120Z,4.97
2022-10-26T15:54:26.046Z,4.84
2022-10-26T15:55:31.610Z,5.15
2022-10-26T15:56:33.792Z,4.92
2022-10-26T15:57:36.996Z,4.29
2022-10-26T15:58:38.997Z,3.93
2022-10-26T15:59:40.884Z,4.22
2022-10-26T16:00:43.219Z,3.87
2022-10-26T16:01:45.796Z,4.02
2022-10-26T16:02:48.440Z,4.20
2022-10-26T16:03:51.193Z,4.60
2022-10-26T16:04:53.096Z,4.36
2022-10-26T16:05:58.610Z,4.37
2022-10-26T16:07:00.886Z,3.71
2022-10-26T16:08:03.598Z,4.61
2022-10-26T16:09:08.714Z,4.08
2022-10-26T16:10:23.373Z,4.72
2022-10-26T16:11:28.519Z,4.35
2022-10-26T16:12:30.526Z,3.89
2022-10-26T16:13:32.500Z,4.25
2022-10-26T16:14:53.269Z,4.16
2022-10-26T16:15:38.940Z,3.99
2022-10-26T16:16:41.171Z,4.53
2022-10-26T16:17:44.122Z,4.32
2022-10-26T16:18:47.032Z,3.59
2022-10-26T16:19:48.938Z,3.98
2022-10-26T16:20:50.991Z,4.60
2022-10-26T16:21:53.474Z,3.97
2022-10-26T16:22:56.071Z,4.01
2022-10-26T16:23:58.833Z,4.39
2022-10-26T16:25:00.900Z,4.10
2022-10-26T16:26:03.948Z,3.68
2022-10-26T16:27:06.373Z,3.94
2022-10-26T16:28:10.757Z,4.65
2022-10-26T16:29:13.192Z,4.74
2022-10-26T16:30:17.734Z,3.97
2022-10-26T16:31:20.611Z,4.16
2022-10-26T16:32:22.592Z,4.59
2022-10-26T16:33:24.731Z,4.94
2022-10-26T16:34:26.660Z,4.31
2022-10-26T16:35:28.851Z,4.36
2022-10-26T16:36:31.767Z,4.81
2022-10-26T16:37:33.891Z,4.74
2022-10-26T16:38:35.934Z,4.39
2022-10-26T16:39:38.922Z,4.90
2022-10-26T16:40:41.050Z,5.06
2022-10-26T16:41:42.950Z,4.61
2022-10-26T16:42:45.109Z,4.90
2022-10-26T16:43:46.993Z,4.54
2022-10-26T16:44:49.585Z,4.04
2022-10-26T16:45:51.774Z,4.51
2022-10-26T16:46:53.984Z,4.25
2022-10-26T16:47:56.814Z,4.37
2022-10-26T16:48:58.747Z,4.43
2022-10-26T16:50:01.065Z,4.87
2022-10-26T16:51:09.332Z,4.46
2022-10-26T16:52:12.321Z,5.20
2022-10-26T16:53:14.291Z,4.82
2022-10-26T16:54:16.490Z,5.03
2022-10-26T16:55:18.600Z,4.88
2022-10-26T16:56:27.101Z,4.91
2022-10-26T16:57:29.559Z,5.07
2022-10-26T16:58:34.352Z,4.11
2022-10-26T16:59:36.181Z,4.55
2022-10-26T17:00:38.445Z,4.71
2022-10-26T17:01:40.461Z,4.22
2022-10-26T17:02:42.788Z,4.30
2022-10-26T17:03:50.059Z,4.44
2022-10-26T17:04:52.564Z,5.03
2022-10-26T17:07:06.994Z,4.62
2022-10-26T17:08:08.977Z,3.97
2022-10-26T17:59:59.276Z,4.34
2022-10-26T18:01:10.184Z,4.49
2022-10-26T18:02:12.948Z,4.39
2022-10-26T18:03:15.090Z,4.59
2022-10-26T18:04:17.015Z,4.67
2022-10-26T18:05:19.090Z,4.42
2022-10-26T18:06:22.741Z,4.91
2022-10-26T18:07:25.646Z,4.33
2022-10-26T18:08:31.413Z,4.78
2022-10-26T18:09:33.433Z,4.45
2022-10-26T18:10:38.703Z,4.33
2022-10-26T18:11:39.478Z,4.61
2022-10-26T18:12:42.164Z,4.26
2022-10-26T18:13:46.609Z,4.49
2022-10-26T18:14:48.644Z,4.84
2022-10-26T18:15:50.540Z,4.45
2022-10-26T18:16:52.743Z,5.17
2022-10-26T18:17:58.324Z,4.41
2022-10-26T18:19:02.017Z,4.19
2022-10-26T18:20:05.349Z,4.53
2022-10-26T18:21:10.036Z,4.61
2022-10-26T18:22:12.331Z,4.24
2022-10-26T18:23:15.328Z,3.77
2022-10-26T18:24:17.674Z,4.20
2022-10-26T18:25:19.759Z,4.12
2022-10-26T18:26:24.444Z,4.18
2022-10-26T18:27:26.809Z,3.95
2022-10-26T18:28:28.895Z,4.29
2022-10-26T18:29:31.373Z,4.51
2022-10-26T18:30:34.505Z,4.53
2022-10-26T18:31:37.004Z,3.82
2022-10-26T18:32:39.160Z,4.06
2022-10-26T18:33:41.791Z,4.19
2022-10-26T18:34:43.746Z,4.44
2022-10-26T18:35:46.076Z,3.99
2022-10-26T18:36:49.616Z,3.72
2022-10-26T18:37:51.829Z,4.01
2022-10-26T18:38:55.044Z,4.46
2022-10-26T18:39:57.370Z,3.58
2022-10-26T18:41:00.497Z,3.79
2022-10-26T18:42:02.564Z,3.56
2022-10-26T18:43:04.496Z,4.25
2022-10-26T18:44:08.711Z,3.55
2022-10-26T18:45:10.896Z,3.58
2022-10-26T18:47:30.734Z,4.13
2022-10-26T18:48:34.051Z,3.47
2022-10-26T18:49:36.499Z,3.51
2022-10-26T18:50:39.437Z,3.87
2022-10-26T18:51:41.330Z,4.25
2022-10-26T18:52:43.942Z,3.53
2022-10-26T18:53:47.749Z,3.52
2022-10-26T18:54:50.592Z,3.13
2022-10-26T18:55:52.857Z,3.68
2022-10-26T18:56:55.499Z,3.82
2022-10-26T18:57:57.766Z,4.05
2022-10-26T18:59:00.276Z,3.43
2022-10-26T19:00:03.215Z,3.59
2022-10-26T19:01:15.400Z,3.84
2022-10-26T19:02:18.737Z,3.53
2022-10-26T19:03:21.216Z,3.86
2022-10-26T19:04:23.393Z,3.94
2022-10-26T19:05:28.063Z,3.64
2022-10-26T19:06:35.875Z,3.37
2022-10-26T19:07:39.812Z,3.97
2022-10-26T19:08:43.177Z,3.76
2022-10-26T19:09:45.446Z,3.92
2022-10-26T19:10:48.754Z,3.56
2022-10-26T19:11:50.883Z,3.98
2022-10-26T19:12:53.441Z,4.40
2022-10-26T19:13:56.325Z,4.55
2022-10-26T19:14:58.404Z,3.97
2022-10-26T19:16:12.573Z,4.15
2022-10-26T19:17:11.267Z,3.47
2022-10-26T19:18:13.301Z,4.50
2022-10-26T19:19:17.527Z,4.57
2022-10-26T19:20:19.818Z,4.28
2022-10-26T19:21:24.881Z,4.31
2022-10-26T19:22:26.842Z,4.14
2022-10-26T19:23:38.313Z,5.90
2022-10-26T19:24:40.496Z,6.31
2022-10-26T19:25:43.243Z,6.01
2022-10-26T19:26:46.932Z,5.85
2022-10-26T19:27:49.429Z,4.39
2022-10-26T19:28:56.367Z,3.82
2022-10-26T19:29:58.298Z,4.29
2022-10-26T19:31:06.530Z,4.50
2022-10-26T19:32:08.606Z,4.74
2022-10-26T19:33:10.693Z,5.32
2022-10-26T19:34:14.824Z,4.91
2022-10-26T19:35:16.951Z,5.66
2022-10-26T19:36:19.277Z,5.08
2022-10-26T19:37:24.796Z,4.62
2022-10-26T19:38:26.302Z,4.22
2022-10-26T19:39:28.361Z,4.43
2022-10-26T19:40:30.568Z,4.17
2022-10-26T19:41:32.568Z,4.21
2022-10-26T19:42:34.549Z,4.97
2022-10-26T19:43:37.643Z,4.93
2022-10-26T19:44:39.536Z,4.76
2022-10-26T19:45:41.865Z,4.28
2022-10-26T19:46:44.147Z,4.55
2022-10-26T19:47:47.351Z,4.41
2022-10-26T19:49:00.933Z,3.61
2022-10-26T19:50:03.947Z,3.77
2022-10-26T19:51:06.822Z,4.03
2022-10-26T19:52:08.776Z,4.66
2022-10-26T19:53:10.950Z,4.85
2022-10-26T19:54:13.176Z,4.12
2022-10-26T19:55:15.675Z,4.23